createdAt,value
2018-08-20T00:00:11.097Z,55994.59
2018-08-20T00:02:40.182Z,55988.43
2018-08-20T00:05:09.426Z,55987.40
2018-08-20T00:07:38.500Z,56002.82
2018-08-20T00:10:10.204Z,55997.68
2018-08-20T00:12:39.374Z,55977.11
2018-08-20T00:15:08.581Z,55987.40
2018-08-20T00:17:37.745Z,55986.37
2018-08-20T00:20:08.069Z,55971.97
2018-08-20T00:22:37.221Z,55980.20
2018-08-20T00:25:16.650Z,56004.87
2018-08-20T00:27:47.069Z,55979.17
2018-08-20T00:30:19.417Z,56010.02
2018-08-20T00:32:49.407Z,55987.40
2018-08-20T00:35:20.161Z,55970.95
2018-08-20T00:37:50.838Z,55974.03
2018-08-20T00:40:20.924Z,56010.02
2018-08-20T00:42:50.107Z,56040.86
2018-08-20T00:45:19.331Z,55995.62
2018-08-20T00:47:48.470Z,55966.83
2018-08-20T00:50:17.733Z,56026.47
2018-08-20T00:52:46.860Z,55989.45
2018-08-20T00:55:16.002Z,55997.68
2018-08-20T00:57:45.226Z,56018.24
2018-08-20T01:00:14.365Z,55990.48
2018-08-20T01:02:43.485Z,55977.11
2018-08-20T01:05:12.634Z,56027.50
2018-08-20T01:07:41.846Z,55994.59
2018-08-20T01:10:11.086Z,55996.65
2018-08-20T01:12:40.177Z,55992.54
2018-08-20T01:15:09.351Z,55991.51
2018-08-20T01:17:38.539Z,56014.13
2018-08-20T01:20:08.104Z,55989.45
2018-08-20T01:22:40.120Z,55987.40
2018-08-20T01:25:09.226Z,56004.87
2018-08-20T01:27:38.337Z,56004.87
2018-08-20T01:30:07.593Z,55996.65
2018-08-20T01:32:36.684Z,56055.26
2018-08-20T01:35:20.130Z,55997.68
2018-08-20T01:37:49.261Z,56027.50
2018-08-20T01:40:18.410Z,56010.02
2018-08-20T01:42:47.579Z,56005.90
2018-08-20T01:45:16.701Z,55975.06
2018-08-20T01:47:45.875Z,56027.50
2018-08-20T01:50:15.062Z,56016.19
2018-08-20T01:52:44.250Z,55998.71
2018-08-20T01:55:13.389Z,55999.73
2018-08-20T01:57:42.589Z,56002.82
2018-08-20T02:00:11.930Z,56018.24
2018-08-20T02:02:41.048Z,56024.41
2018-08-20T02:05:10.556Z,56012.07
2018-08-20T02:07:39.710Z,56024.41
2018-08-20T02:10:08.859Z,56028.52
2018-08-20T02:12:38.304Z,56023.38
2018-08-20T02:15:07.424Z,56034.70
2018-08-20T02:17:36.565Z,56005.90
2018-08-20T02:20:06.187Z,56001.79
2018-08-20T02:22:35.327Z,56025.44
2018-08-20T02:25:04.792Z,56031.61
2018-08-20T02:27:33.923Z,56013.10
2018-08-20T02:30:03.102Z,56001.79
2018-08-20T02:32:32.318Z,56010.02
2018-08-20T02:35:01.475Z,56038.81
2018-08-20T02:37:35.993Z,56020.30
2018-08-20T02:40:07.458Z,55993.57
2018-08-20T02:42:37.025Z,56016.19
2018-08-20T02:45:09.099Z,55998.71
2018-08-20T02:47:39.400Z,55984.31
2018-08-20T02:50:09.157Z,56014.13
2018-08-20T02:52:38.354Z,56030.58
2018-08-20T02:55:07.918Z,56047.03
2018-08-20T02:57:37.099Z,56042.92
2018-08-20T03:00:09.385Z,56003.85
2018-08-20T03:02:38.610Z,55989.45
2018-08-20T03:05:08.710Z,55995.62
2018-08-20T03:07:37.838Z,55993.57
2018-08-20T03:10:09.687Z,56004.87
2018-08-20T03:12:38.720Z,56006.93
2018-08-20T03:15:09.232Z,55993.57
2018-08-20T03:17:38.360Z,56019.27
2018-08-20T03:20:07.971Z,56016.19
2018-08-20T03:22:37.193Z,56020.30
2018-08-20T03:25:07.134Z,56008.99
2018-08-20T03:27:36.274Z,56016.19
2018-08-20T03:30:07.216Z,56020.30
2018-08-20T03:32:36.484Z,56020.30
2018-08-20T03:35:07.785Z,56014.13
2018-08-20T03:37:37.098Z,56030.58
2018-08-20T03:40:08.991Z,56005.90
2018-08-20T03:42:38.173Z,56005.90
2018-08-20T03:45:08.706Z,56024.41
2018-08-20T03:47:37.904Z,56020.30
2018-08-20T03:50:10.436Z,56023.38
2018-08-20T03:52:39.677Z,56012.07
2018-08-20T03:55:08.804Z,56040.86
2018-08-20T03:57:38.404Z,55999.73
2018-08-20T04:00:09.780Z,56019.27
2018-08-20T04:02:38.935Z,55997.68
2018-08-20T04:05:08.173Z,56025.44
2018-08-20T04:07:37.222Z,56044.98
2018-08-20T04:10:06.380Z,55999.73
2018-08-20T04:12:35.525Z,56008.99
2018-08-20T04:15:04.796Z,56008.99
2018-08-20T04:17:33.897Z,56024.41
2018-08-20T04:20:03.105Z,56031.61
2018-08-20T04:22:32.368Z,56018.24
2018-08-20T04:25:01.487Z,56012.07
2018-08-20T04:27:30.633Z,56038.81
2018-08-20T04:29:59.768Z,56007.96
2018-08-20T04:32:28.877Z,56012.07
2018-08-20T04:34:58.043Z,56023.38
2018-08-20T04:37:27.199Z,56014.13
2018-08-20T04:39:56.364Z,56003.85
2018-08-20T04:42:25.503Z,56041.89
2018-08-20T04:44:54.651Z,56011.05
2018-08-20T04:47:23.768Z,56004.87
2018-08-20T04:49:52.947Z,55997.68
2018-08-20T04:52:22.154Z,55983.28
2018-08-20T04:54:51.636Z,56000.76
2018-08-20T04:57:20.773Z,56006.93
2018-08-20T04:59:49.899Z,56011.05
2018-08-20T05:02:19.040Z,56017.21
2018-08-20T05:04:48.237Z,55991.51
2018-08-20T05:07:17.449Z,56014.13
2018-08-20T05:09:46.633Z,56020.30
2018-08-20T05:12:15.803Z,56004.87
2018-08-20T05:14:44.930Z,56021.33
2018-08-20T05:17:14.093Z,55969.92
2018-08-20T05:19:43.274Z,55994.59
2018-08-20T05:22:12.433Z,55973.00
2018-08-20T05:24:41.582Z,55981.23
2018-08-20T05:27:10.727Z,56004.87
2018-08-20T05:29:39.895Z,56012.07
2018-08-20T05:32:09.035Z,55998.71
2018-08-20T05:34:38.176Z,56023.38
2018-08-20T05:37:07.330Z,55977.11
2018-08-20T05:39:36.473Z,55991.51
2018-08-20T05:42:05.704Z,55993.57
2018-08-20T05:44:34.916Z,55970.95
2018-08-20T05:47:04.098Z,55976.09
2018-08-20T05:49:33.255Z,55965.80
2018-08-20T05:52:02.787Z,55985.34
2018-08-20T05:54:31.949Z,55967.86
2018-08-20T05:57:01.137Z,55962.72
2018-08-20T05:59:30.258Z,55959.63
2018-08-20T06:01:59.504Z,55991.51
2018-08-20T06:04:28.656Z,55950.38
2018-08-20T06:06:57.798Z,55966.83
2018-08-20T06:09:26.990Z,55944.21
2018-08-20T06:11:56.163Z,55968.89
2018-08-20T06:14:25.351Z,55963.75
2018-08-20T06:16:54.534Z,55947.30
2018-08-20T06:19:23.847Z,55942.16
2018-08-20T06:21:53.012Z,55935.98
2018-08-20T06:24:22.397Z,55943.18
2018-08-20T06:26:51.524Z,55956.55
2018-08-20T06:29:20.666Z,55909.25
2018-08-20T06:31:49.829Z,55923.65
2018-08-20T06:34:18.987Z,55956.55
2018-08-20T06:36:48.206Z,55977.11
2018-08-20T06:39:17.453Z,55925.70
2018-08-20T06:41:46.599Z,55955.52
2018-08-20T06:44:15.757Z,55914.39
2018-08-20T06:46:44.865Z,55956.55
2018-08-20T06:49:14.057Z,55944.21
2018-08-20T06:51:43.210Z,55968.89
2018-08-20T06:54:12.437Z,55957.58
2018-08-20T06:56:41.682Z,55951.41
2018-08-20T06:59:10.846Z,55925.70
2018-08-20T07:01:40.005Z,55960.66
2018-08-20T07:04:09.599Z,55951.41
2018-08-20T07:06:38.719Z,55942.16
2018-08-20T07:09:08.704Z,55976.09
2018-08-20T07:11:37.881Z,55925.70
2018-08-20T07:14:07.013Z,55956.55
2018-08-20T07:16:36.191Z,55961.69
2018-08-20T07:19:05.371Z,55964.78
2018-08-20T07:21:34.465Z,55967.86
2018-08-20T07:24:03.612Z,55963.75
2018-08-20T07:26:32.742Z,55923.65
2018-08-20T07:29:01.868Z,55971.97
2018-08-20T07:31:31.022Z,55965.80
2018-08-20T07:34:00.145Z,55962.72
2018-08-20T07:36:29.472Z,55944.21
2018-08-20T07:38:58.716Z,55959.63
2018-08-20T07:41:27.911Z,55944.21
2018-08-20T07:43:57.122Z,55991.51
2018-08-20T07:46:26.315Z,55952.44
2018-08-20T07:48:56.015Z,55946.27
2018-08-20T07:51:25.186Z,55958.61
2018-08-20T07:53:54.397Z,55970.95
2018-08-20T07:56:23.551Z,55962.72
2018-08-20T07:58:52.711Z,55955.52
2018-08-20T08:01:21.843Z,55977.11
2018-08-20T08:03:51.049Z,55960.66
2018-08-20T08:06:20.205Z,55952.44
2018-08-20T08:08:49.425Z,55969.92
2018-08-20T08:11:18.571Z,55941.13
2018-08-20T08:13:47.711Z,55948.32
2018-08-20T08:16:16.923Z,55945.24
2018-08-20T08:18:46.060Z,55966.83
2018-08-20T08:21:15.192Z,55944.21
2018-08-20T08:23:44.325Z,55956.55
2018-08-20T08:26:13.521Z,55958.61
2018-08-20T08:28:42.698Z,55935.98
2018-08-20T08:31:11.839Z,55948.32
2018-08-20T08:33:40.963Z,55958.61
2018-08-20T08:36:10.190Z,55938.04
2018-08-20T08:38:39.344Z,55911.31
2018-08-20T08:41:08.488Z,55954.49
2018-08-20T08:43:37.581Z,55929.82
2018-08-20T08:46:06.983Z,55957.58
2018-08-20T08:48:36.111Z,55957.58
2018-08-20T08:51:05.390Z,55927.76
2018-08-20T08:53:34.574Z,55944.21
2018-08-20T08:56:03.782Z,55917.48
2018-08-20T08:58:32.949Z,55909.25
2018-08-20T09:01:02.150Z,55921.59
2018-08-20T09:03:32.184Z,55926.73
2018-08-20T09:06:02.749Z,55933.93
2018-08-20T09:08:32.015Z,55916.45
2018-08-20T09:11:01.288Z,55913.36
2018-08-20T09:13:30.477Z,55913.36
2018-08-20T09:15:59.626Z,55913.36
2018-08-20T09:18:28.735Z,55929.82
2018-08-20T09:20:57.908Z,55924.68
2018-08-20T09:23:27.081Z,55919.54
2018-08-20T09:25:56.182Z,55891.77
2018-08-20T09:28:25.405Z,55909.25
2018-08-20T09:30:54.596Z,55902.05
2018-08-20T09:33:23.818Z,55929.82
2018-08-20T09:35:52.946Z,55938.04
2018-08-20T09:38:22.199Z,55919.54
2018-08-20T09:40:51.333Z,55923.65
2018-08-20T09:43:20.452Z,55945.24
2018-08-20T09:45:49.594Z,55919.54
2018-08-20T09:48:18.710Z,55916.45
2018-08-20T09:50:47.853Z,55945.24
2018-08-20T09:53:17.035Z,55939.07
2018-08-20T09:55:46.217Z,55941.13
2018-08-20T09:58:15.298Z,55933.93
2018-08-20T10:00:44.987Z,55945.24
2018-08-20T10:03:14.157Z,55931.87
2018-08-20T10:05:43.306Z,55925.70
2018-08-20T10:08:12.454Z,55941.13
2018-08-20T10:10:41.587Z,55917.48
2018-08-20T10:13:10.837Z,55907.20
2018-08-20T10:15:40.018Z,55926.73
2018-08-20T10:18:09.180Z,55914.39
2018-08-20T10:20:38.297Z,55935.98
2018-08-20T10:23:07.411Z,55942.16
2018-08-20T10:25:36.477Z,55935.98
2018-08-20T10:28:05.771Z,55897.94
2018-08-20T10:30:34.878Z,55919.54
2018-08-20T10:33:04.178Z,55919.54
2018-08-20T10:35:33.310Z,55949.35
2018-08-20T10:38:02.414Z,55946.27
2018-08-20T10:40:31.589Z,55941.13
2018-08-20T10:43:00.680Z,55947.30
2018-08-20T10:45:35.072Z,55949.35
2018-08-20T10:48:04.201Z,55951.41
2018-08-20T10:50:33.329Z,55970.95
2018-08-20T10:53:02.476Z,55946.27
2018-08-20T10:55:31.615Z,55924.68
2018-08-20T10:58:00.756Z,55932.90
2018-08-20T11:00:29.963Z,55954.49
2018-08-20T11:02:59.130Z,55946.27
2018-08-20T11:05:28.341Z,55922.62
2018-08-20T11:07:57.490Z,55917.48
2018-08-20T11:10:26.689Z,55917.48
2018-08-20T11:12:55.849Z,55926.73
2018-08-20T11:15:24.967Z,55887.66
2018-08-20T11:17:54.157Z,55893.83
2018-08-20T11:20:23.357Z,55892.80
2018-08-20T11:22:52.523Z,55875.32
2018-08-20T11:25:21.744Z,55902.05
2018-08-20T11:27:50.837Z,55896.91
2018-08-20T11:30:20.004Z,55958.61
2018-08-20T11:32:49.060Z,55910.28
2018-08-20T11:35:18.176Z,55942.16
2018-08-20T11:37:47.346Z,55907.20
2018-08-20T11:40:16.579Z,55897.94
2018-08-20T11:42:45.704Z,55973.00
2018-08-20T11:45:15.312Z,55894.86
2018-08-20T11:47:44.850Z,55905.14
2018-08-20T11:50:13.995Z,55924.68
2018-08-20T11:52:43.209Z,55933.93
2018-08-20T11:55:12.341Z,55917.48
2018-08-20T11:57:41.528Z,55905.14
2018-08-20T12:00:11.796Z,55904.11
2018-08-20T12:02:41.147Z,55890.75
2018-08-20T12:05:10.900Z,55916.45
2018-08-20T12:07:40.164Z,55909.25
2018-08-20T12:10:10.290Z,55906.17
2018-08-20T12:12:40.366Z,55906.17
2018-08-20T12:15:11.825Z,55879.43
2018-08-20T12:17:41.729Z,55869.15
2018-08-20T12:20:11.071Z,55898.97
2018-08-20T12:22:40.979Z,55915.42
2018-08-20T12:25:13.336Z,55917.48
2018-08-20T12:27:42.616Z,55921.59
2018-08-20T12:30:13.420Z,55907.20
2018-08-20T12:32:42.967Z,55904.11
2018-08-20T12:35:12.172Z,55922.62
2018-08-20T12:37:41.942Z,55913.36
2018-08-20T12:40:11.090Z,55924.68
2018-08-20T12:42:40.237Z,55917.48
2018-08-20T12:45:09.503Z,55919.54
2018-08-20T12:47:38.742Z,55911.31
2018-08-20T12:50:07.919Z,55905.14
2018-08-20T12:52:37.331Z,55940.10
2018-08-20T12:55:06.804Z,55902.05
2018-08-20T12:57:36.204Z,55898.97
2018-08-20T13:00:06.610Z,55919.54
2018-08-20T13:02:35.801Z,55881.49
2018-08-20T13:05:05.236Z,55893.83
2018-08-20T13:07:34.415Z,55861.95
2018-08-20T13:10:03.613Z,55889.72
2018-08-20T13:12:32.739Z,55914.39
2018-08-20T13:15:08.711Z,55890.75
2018-08-20T13:17:37.906Z,55869.15
2018-08-20T13:20:07.122Z,55862.98
2018-08-20T13:22:36.287Z,55898.97
2018-08-20T13:25:06.325Z,55872.24
2018-08-20T13:27:35.826Z,55861.95
2018-08-20T13:30:06.397Z,55890.75
2018-08-20T13:32:35.537Z,55915.42
2018-08-20T13:35:05.090Z,55896.91
2018-08-20T13:37:34.226Z,55909.25
2018-08-20T13:40:03.402Z,55887.66
2018-08-20T13:42:32.584Z,55923.65
2018-08-20T13:45:02.078Z,55952.44
2018-08-20T13:47:37.980Z,55964.78
2018-08-20T13:50:16.099Z,55956.55
2018-08-20T13:52:48.118Z,55938.04
2018-08-20T13:55:17.239Z,55931.87
2018-08-20T13:57:48.591Z,55964.78
2018-08-20T14:00:19.017Z,55948.32
2018-08-20T14:02:48.202Z,55944.21
2018-08-20T14:05:17.874Z,55931.87
2018-08-20T14:07:47.597Z,55931.87
2018-08-20T14:10:16.776Z,55938.04
2018-08-20T14:12:46.010Z,55931.87
2018-08-20T14:15:15.687Z,55924.68
2018-08-20T14:17:44.979Z,55962.72
2018-08-20T14:20:15.800Z,55950.38
2018-08-20T14:22:45.596Z,55938.04
2018-08-20T14:25:14.839Z,55915.42
2018-08-20T14:27:43.964Z,55954.49
2018-08-20T14:30:14.897Z,55931.87
2018-08-20T14:32:44.500Z,55935.98
2018-08-20T14:35:13.702Z,55924.68
2018-08-20T14:37:42.862Z,55926.73
2018-08-20T14:40:16.164Z,55939.07
2018-08-20T14:42:45.724Z,55942.16
2018-08-20T14:45:16.088Z,55920.56
2018-08-20T14:47:46.012Z,55940.10
2018-08-20T14:50:17.145Z,55935.98
2018-08-20T14:52:46.396Z,55933.93
2018-08-20T14:55:15.613Z,55935.98
2018-08-20T14:57:44.764Z,55941.13
2018-08-20T15:00:14.919Z,55923.65
2018-08-20T15:02:44.098Z,55942.16
2018-08-20T15:05:13.626Z,55928.79
2018-08-20T15:07:42.820Z,55931.87
2018-08-20T15:10:12.044Z,55940.10
2018-08-20T15:12:41.240Z,55908.23
2018-08-20T15:15:10.511Z,55932.90
2018-08-20T15:17:39.661Z,55917.48
2018-08-20T15:20:09.373Z,55968.89
2018-08-20T15:22:39.101Z,55913.36
2018-08-20T15:25:08.349Z,55937.01
2018-08-20T15:27:37.577Z,55944.21
2018-08-20T15:30:06.782Z,55942.16
2018-08-20T15:32:36.014Z,55944.21
2018-08-20T15:35:05.228Z,55930.84
2018-08-20T15:37:34.361Z,55958.61
2018-08-20T15:40:03.495Z,55953.46
2018-08-20T15:42:32.697Z,55962.72
2018-08-20T15:45:01.906Z,55964.78
2018-08-20T15:47:31.123Z,55950.38
2018-08-20T15:50:00.360Z,55940.10
2018-08-20T15:52:29.714Z,55954.49
2018-08-20T15:54:58.861Z,55935.98
2018-08-20T15:57:28.029Z,55938.04
2018-08-20T15:59:57.269Z,55960.66
2018-08-20T16:02:26.395Z,55938.04
2018-08-20T16:04:55.791Z,55963.75
2018-08-20T16:07:24.928Z,55955.52
2018-08-20T16:09:55.691Z,55943.18
2018-08-20T16:12:24.896Z,55956.55
2018-08-20T16:14:54.070Z,55927.76
2018-08-20T16:17:23.241Z,55961.69
2018-08-20T16:19:52.449Z,55964.78
2018-08-20T16:22:21.600Z,55956.55
2018-08-20T16:24:50.712Z,55945.24
2018-08-20T16:27:19.817Z,55956.55
2018-08-20T16:29:48.937Z,55962.72
2018-08-20T16:32:18.086Z,55951.41
2018-08-20T16:34:47.257Z,55935.98
2018-08-20T16:37:16.398Z,55960.66
2018-08-20T16:39:45.680Z,55988.43
2018-08-20T16:42:14.795Z,55963.75
2018-08-20T16:44:43.902Z,55931.87
2018-08-20T16:47:13.051Z,55961.69
2018-08-20T16:49:42.125Z,55957.58
2018-08-20T16:52:11.287Z,55955.52
2018-08-20T16:54:40.393Z,55990.48
2018-08-20T16:57:10.399Z,55965.80
2018-08-20T16:59:39.555Z,55977.11
2018-08-20T17:02:15.290Z,55988.43
2018-08-20T17:04:44.411Z,55976.09
2018-08-20T17:07:13.615Z,55981.23
2018-08-20T17:09:42.742Z,55976.09
2018-08-20T17:12:11.839Z,55952.44
2018-08-20T17:14:41.011Z,55969.92
2018-08-20T17:17:10.140Z,55974.03
2018-08-20T17:19:39.196Z,55985.34
2018-08-20T17:22:08.357Z,55961.69
2018-08-20T17:24:38.412Z,55951.41
2018-08-20T17:27:07.526Z,55954.49
2018-08-20T17:29:36.700Z,55973.00
2018-08-20T17:32:07.070Z,55975.06
2018-08-20T17:34:40.335Z,55973.00
2018-08-20T17:37:09.548Z,55975.06
2018-08-20T17:39:59.470Z,55956.55
2018-08-20T17:42:29.979Z,55978.14
2018-08-20T17:44:59.703Z,55963.75
2018-08-20T17:47:29.534Z,55984.31
2018-08-20T17:49:59.596Z,55959.63
2018-08-20T17:52:35.671Z,55963.75
2018-08-20T17:55:05.757Z,55960.66
2018-08-20T17:57:34.859Z,55985.34
2018-08-20T18:00:47.795Z,55964.78
2018-08-20T18:03:24.363Z,55982.25
2018-08-20T18:05:56.670Z,55983.28
2018-08-20T18:08:26.936Z,55966.83
2018-08-20T18:10:56.283Z,55991.51
2018-08-20T18:13:46.233Z,55997.68
2018-08-20T18:16:16.606Z,55991.51
2018-08-20T18:18:47.246Z,55974.03
2018-08-20T18:21:16.443Z,55981.23
2018-08-20T18:23:45.629Z,55996.65
2018-08-20T18:26:14.798Z,55990.48
2018-08-20T18:28:52.608Z,55962.72
2018-08-20T18:31:23.976Z,55991.51
2018-08-20T18:33:53.183Z,55992.54
2018-08-20T18:36:24.485Z,55976.09
2018-08-20T18:39:00.522Z,55991.51
2018-08-20T18:42:15.305Z,56003.85
2018-08-20T18:44:46.414Z,55997.68
2018-08-20T18:47:17.193Z,55956.55
2018-08-20T18:49:52.571Z,55985.34
2018-08-20T18:52:23.465Z,55978.14
2018-08-20T18:54:54.794Z,55983.28
2018-08-20T18:57:27.132Z,55991.51
2018-08-20T18:59:59.466Z,55981.23
2018-08-20T19:02:45.792Z,56003.85
2018-08-20T19:05:16.371Z,55992.54
2018-08-20T19:07:45.735Z,56001.79
2018-08-20T19:10:25.094Z,55993.57
2018-08-20T19:12:54.201Z,55964.78
2018-08-20T19:15:36.887Z,55991.51
2018-08-20T19:18:08.187Z,55991.51
2018-08-20T19:20:37.384Z,56001.79
2018-08-20T19:23:06.546Z,55995.62
2018-08-20T19:25:35.658Z,55968.89
2018-08-20T19:28:10.126Z,55980.20
2018-08-20T19:30:39.287Z,55999.73
2018-08-20T19:33:22.506Z,55983.28
2018-08-20T19:35:52.048Z,55971.97
2018-08-20T19:38:21.241Z,56015.16
2018-08-20T19:41:03.558Z,55985.34
2018-08-20T19:43:38.720Z,56007.96
2018-08-20T19:46:07.890Z,56000.76
2018-08-20T19:48:37.008Z,55975.06
2018-08-20T19:51:08.735Z,56005.90
2018-08-20T19:53:37.888Z,56001.79
2018-08-20T19:56:13.500Z,55998.71
2018-08-20T19:58:44.113Z,55991.51
2018-08-20T20:01:17.171Z,55993.57
2018-08-20T20:03:47.970Z,55968.89
2018-08-20T20:06:17.466Z,56018.24
2018-08-20T20:08:46.558Z,56005.90
2018-08-20T20:11:22.889Z,56003.85
2018-08-20T20:14:02.628Z,56007.96
2018-08-20T20:16:39.487Z,55993.57
2018-08-20T20:19:09.239Z,56014.13
2018-08-20T20:21:38.727Z,55999.73
2018-08-20T20:24:08.537Z,55999.73
2018-08-20T20:26:37.652Z,55965.80
2018-08-20T20:29:08.537Z,56014.13
2018-08-20T20:31:38.731Z,56012.07
2018-08-20T20:34:08.113Z,56012.07
2018-08-20T20:36:37.281Z,56030.58
2018-08-20T20:39:09.410Z,56004.87
2018-08-20T20:41:38.637Z,56006.93
2018-08-20T20:44:08.593Z,55993.57
2018-08-20T20:46:37.730Z,55977.11
2018-08-20T20:49:07.011Z,56003.85
2018-08-20T20:51:36.154Z,55995.62
2018-08-20T20:54:05.285Z,55992.54
2018-08-20T20:56:34.404Z,56012.07
2018-08-20T20:59:03.553Z,55996.65
2018-08-20T21:01:32.718Z,56004.87
2018-08-20T21:04:06.068Z,55981.23
2018-08-20T21:06:38.507Z,56031.61
2018-08-20T21:09:10.173Z,55987.40
2018-08-20T21:11:39.323Z,56014.13
2018-08-20T21:14:08.741Z,56016.19
2018-08-20T21:16:37.836Z,55990.48
2018-08-20T21:19:06.929Z,55989.45
2018-08-20T21:21:36.095Z,56025.44
2018-08-20T21:24:07.964Z,55987.40
2018-08-20T21:26:37.149Z,56034.70
2018-08-20T21:29:06.305Z,55997.68
2018-08-20T21:31:42.511Z,56034.70
2018-08-20T21:34:11.881Z,56022.36
2018-08-20T21:36:41.047Z,56006.93
2018-08-20T21:39:10.609Z,56022.36
2018-08-20T21:41:39.778Z,56016.19
2018-08-20T21:44:08.865Z,56035.72
2018-08-20T21:46:38.023Z,55990.48
2018-08-20T21:49:07.356Z,56020.30
2018-08-20T21:51:42.598Z,56040.86
2018-08-20T21:54:11.739Z,56020.30
2018-08-20T21:56:51.464Z,56042.92
2018-08-20T21:59:20.636Z,56032.64
2018-08-20T22:01:49.825Z,56006.93
2018-08-20T22:04:21.090Z,56010.02
2018-08-20T22:06:50.714Z,56031.61
2018-08-20T22:09:19.845Z,56021.33
2018-08-20T22:11:49.063Z,56010.02
2018-08-20T22:14:18.252Z,56020.30
2018-08-20T22:16:47.455Z,56020.30
2018-08-20T22:19:16.664Z,56016.19
2018-08-20T22:21:45.777Z,56016.19
2018-08-20T22:24:14.914Z,56038.81
2018-08-20T22:26:49.304Z,56004.87
2018-08-20T22:29:18.949Z,56007.96
2018-08-20T22:31:53.384Z,56028.52
2018-08-20T22:34:22.493Z,56012.07
2018-08-20T22:36:55.990Z,55991.51
2018-08-20T22:39:25.147Z,56036.75
2018-08-20T22:41:54.283Z,56047.03
2018-08-20T22:44:23.481Z,56013.10
2018-08-20T22:46:52.655Z,55995.62
2018-08-20T22:49:21.852Z,56015.16
2018-08-20T22:51:51.013Z,56059.37
2018-08-20T22:54:20.170Z,56022.36
2018-08-20T22:56:49.346Z,56032.64
2018-08-20T22:59:18.548Z,56010.02
2018-08-20T23:01:47.735Z,56061.43
2018-08-20T23:04:16.856Z,56051.14
2018-08-20T23:06:45.993Z,56010.02
2018-08-20T23:09:32.407Z,56016.19
2018-08-20T23:12:01.558Z,56014.13
2018-08-20T23:14:30.711Z,56006.93
2018-08-20T23:16:59.900Z,56011.05
2018-08-20T23:19:31.632Z,56039.84
2018-08-20T23:22:00.909Z,56012.07
2018-08-20T23:24:30.049Z,56024.41
2018-08-20T23:26:59.207Z,56026.47
2018-08-20T23:29:28.352Z,56019.27
2018-08-20T23:31:57.546Z,56035.72
2018-08-20T23:34:26.732Z,56008.99
2018-08-20T23:36:55.897Z,56043.95
2018-08-20T23:39:25.090Z,56025.44
2018-08-20T23:41:54.216Z,56011.05
2018-08-20T23:44:23.346Z,56025.44
2018-08-20T23:46:52.473Z,56067.60
2018-08-20T23:49:21.662Z,56040.86
2018-08-20T23:51:50.839Z,56030.58
2018-08-20T23:54:20.016Z,56059.37
2018-08-20T23:56:49.151Z,56026.47
2018-08-20T23:59:18.300Z,56034.70
